Terminal Aerodrome Forecast
Issued by NWS Grand Rapids, MI

Home | Current Version | Previous Version | Text Only | Print | Product List | Glossary On
Versions: 1 2 3 4 5 6 7 8 9 10 11 12 13 14 15 16 17 18 19 20 21 22 23 24
000
FTUS43 KGRR 202300
TAFGRR
TAF
KGRR 202324Z 2100/2124 29007KT P6SM FEW035 FEW090
     FM210500 00000KT P6SM VCSH SCT040 BKN080
     FM210800 00000KT 4SM BR VCSH SCT035 BKN120
     FM211000 14003KT 2SM BR BKN100
     FM211400 17004KT 4SM HZ BKN050
     FM211600 21008KT P6SM VCTS BKN035CB BKN120=

USA.gov is the U.S. government's official web portal to all federal, state and local government web resources and services.